< < Back
Terminal Aerodrome Forecast


Current Version              Previous Versions:   1  2  3  4  5  6  7  8  9  

Terminal Aerodrome Forecast

523
FTUS44 KOHX 250520
TAFBNA
TAF
KBNA 250520Z 2506/2606 VRB02KT P6SM SCT250
     FM251800 23005KT P6SM SCT040 BKN150
     FM260100 18002KT P6SM SCT250=

Latest METAR

995
SAUS70 KWBC 250756
MTRBNA
METAR KBNA 250753Z 00000KT 10SM FEW250 24/22 A3013 RMK AO2 SLP195
T02390217


USA.gov is the U.S. government's official web portal to all federal, state and local government web resources and services.